Time;durP1;ratioP1;P1;durP2;ratioP2;P2;SDS_P1;SDS_P2;PMS_P1;PMS_P2;Temp;Humidity;BMP_temperature;BMP_pressure;BME280_temperature;BME280_humidity;BME280_pressure;Samples;Min_cycle;Max_cycle;Signal;HPM_P1;HPM_P2
2022/03/22 00:01:50;;;;;;;61.10;35.78;;;7.00;99.90;;;;;;6152292;23;20017;-73
2022/03/22 00:04:17;;;;;;;58.88;35.00;;;7.00;99.90;;;;;;6129030;23;20010;-73
2022/03/22 00:06:44;;;;;;;56.63;33.88;;;7.00;99.90;;;;;;6104791;23;20002;-72
2022/03/22 00:09:10;;;;;;;59.78;35.60;;;6.90;99.90;;;;;;6128369;23;20014;-73
2022/03/22 00:11:37;;;;;;;57.33;35.50;;;6.90;99.90;;;;;;6153179;23;20005;-72
2022/03/22 00:14:06;;;;;;;62.47;34.50;;;6.90;99.90;;;;;;6129627;23;20033;-72
2022/03/22 00:16:32;;;;;;;62.95;34.90;;;6.80;99.90;;;;;;6129096;23;20005;-72
2022/03/22 00:18:58;;;;;;;57.65;34.75;;;6.80;99.90;;;;;;6105140;23;20026;-73
2022/03/22 00:21:26;;;;;;;56.65;34.95;;;6.80;99.90;;;;;;6129169;23;20013;-73
2022/03/22 00:23:54;;;;;;;57.67;35.28;;;6.80;99.90;;;;;;6128718;23;20070;-73
2022/03/22 00:26:20;;;;;;;61.45;35.17;;;6.80;99.90;;;;;;6104728;23;19998;-73
2022/03/22 00:28:47;;;;;;;59.05;35.90;;;6.80;99.90;;;;;;6129043;23;20061;-72
2022/03/22 00:31:15;;;;;;;60.72;35.95;;;6.70;99.90;;;;;;6128172;23;20037;-72
2022/03/22 00:33:42;;;;;;;56.58;35.25;;;6.70;99.90;;;;;;6129289;23;20009;-73
2022/03/22 00:36:08;;;;;;;56.63;33.88;;;6.70;99.90;;;;;;6148623;23;20004;-73
2022/03/22 00:38:34;;;;;;;52.65;34.05;;;6.70;99.90;;;;;;6213825;23;20008;-73
2022/03/22 00:41:01;;;;;;;60.28;35.65;;;6.70;99.90;;;;;;6214052;23;19996;-73
2022/03/22 00:43:27;;;;;;;56.03;33.03;;;6.60;99.90;;;;;;6213045;23;20013;-72
2022/03/22 00:45:55;;;;;;;58.63;34.65;;;6.70;99.90;;;;;;6213529;23;20013;-74
2022/03/22 00:48:21;;;;;;;57.90;34.30;;;6.60;99.90;;;;;;6213414;23;19997;-73
2022/03/22 00:50:48;;;;;;;58.42;34.72;;;6.60;99.90;;;;;;6214065;23;20036;-71
2022/03/22 00:53:18;;;;;;;55.15;33.97;;;6.60;99.90;;;;;;6213471;23;20001;-71
2022/03/22 00:55:47;;;;;;;56.85;33.80;;;6.50;99.90;;;;;;6188719;23;20052;-71
2022/03/22 00:58:13;;;;;;;55.15;35.08;;;6.40;99.90;;;;;;6213255;23;20001;-71
2022/03/22 01:00:42;;;;;;;59.65;35.38;;;6.40;99.90;;;;;;6213647;23;20001;-71
2022/03/22 01:03:11;;;;;;;60.15;35.75;;;6.40;99.90;;;;;;6188656;23;20049;-72
2022/03/22 01:05:44;;;;;;;57.37;35.57;;;6.40;99.90;;;;;;6213919;23;20013;-72
2022/03/22 01:08:15;;;;;;;60.65;35.65;;;6.40;99.90;;;;;;6192914;23;20012;-73
2022/03/22 01:10:43;;;;;;;57.22;34.92;;;6.40;99.90;;;;;;6217605;23;20020;-71
2022/03/22 01:13:12;;;;;;;52.72;33.67;;;6.30;99.90;;;;;;6193025;23;20043;-71
2022/03/22 01:15:42;;;;;;;61.03;35.25;;;6.30;99.90;;;;;;6193818;23;20060;-72
2022/03/22 01:18:12;;;;;;;54.03;34.38;;;6.30;99.90;;;;;;6218663;23;20000;-72
2022/03/22 01:20:47;;;;;;;57.03;35.63;;;6.30;99.90;;;;;;6193769;23;20012;-72
2022/03/22 01:23:24;;;;;;;58.30;34.42;;;6.30;99.90;;;;;;6192912;23;20008;-72
2022/03/22 01:25:53;;;;;;;60.15;35.83;;;6.30;99.90;;;;;;6217761;23;20015;-73
2022/03/22 01:28:24;;;;;;;57.45;34.53;;;6.30;99.90;;;;;;6217692;23;20009;-71
2022/03/22 01:30:51;;;;;;;55.72;34.45;;;6.30;99.90;;;;;;6244057;23;20027;-72
2022/03/22 01:33:20;;;;;;;55.85;32.65;;;6.20;99.90;;;;;;6217903;23;20067;-72
2022/03/22 01:35:46;;;;;;;55.42;35.17;;;6.20;99.90;;;;;;6217836;23;20149;-72
2022/03/22 01:38:15;;;;;;;55.97;33.90;;;6.10;99.90;;;;;;6243201;23;20013;-72
2022/03/22 01:40:44;;;;;;;58.83;35.28;;;6.10;99.90;;;;;;6243270;23;20001;-72
2022/03/22 01:43:13;;;;;;;59.63;35.95;;;6.20;99.90;;;;;;6217931;23;20007;-71
2022/03/22 01:45:39;;;;;;;58.15;35.50;;;6.10;99.90;;;;;;6217955;23;20005;-73
2022/03/22 01:48:06;;;;;;;55.05;33.42;;;6.10;99.90;;;;;;6243469;23;20001;-72
2022/03/22 01:50:32;;;;;;;56.05;35.15;;;6.10;99.90;;;;;;6193418;23;20012;-73
2022/03/22 01:52:59;;;;;;;58.88;35.92;;;6.00;99.90;;;;;;6217936;23;20000;-71
2022/03/22 01:55:25;;;;;;;60.35;36.30;;;6.00;99.90;;;;;;6193367;23;20043;-73
2022/03/22 01:57:59;;;;;;;56.92;35.25;;;5.90;99.90;;;;;;6244051;23;20019;-73
2022/03/22 02:00:43;;;;;;;58.67;36.50;;;5.90;99.90;;;;;;6242857;23;20060;-71
2022/03/22 02:05:57;;;;;;;59.42;36.65;;;5.80;99.90;;;;;;6243422;23;20025;-72
2022/03/22 02:08:29;;;;;;;58.47;36.70;;;5.80;99.90;;;;;;6192774;23;20005;-72
2022/03/22 02:10:58;;;;;;;60.03;34.50;;;5.80;99.90;;;;;;6218381;23;20008;-74
2022/03/22 02:13:28;;;;;;;57.13;36.05;;;5.80;99.90;;;;;;6193101;23;20024;-72
2022/03/22 02:15:59;;;;;;;58.45;36.50;;;5.80;99.90;;;;;;6193288;23;20012;-72
2022/03/22 02:18:26;;;;;;;61.83;36.95;;;5.80;99.90;;;;;;6217920;23;20048;-71
2022/03/22 02:20:55;;;;;;;53.38;35.83;;;5.70;99.90;;;;;;6217065;23;20036;-72
2022/03/22 02:23:41;;;;;;;59.40;36.78;;;5.70;99.90;;;;;;6192180;22;20000;-72
2022/03/22 02:26:10;;;;;;;58.05;35.55;;;5.70;99.90;;;;;;6243538;23;20015;-72
2022/03/22 02:28:37;;;;;;;55.53;35.25;;;5.70;99.90;;;;;;6217394;23;20072;-71
2022/03/22 02:31:06;;;;;;;60.72;36.88;;;5.70;99.90;;;;;;6242669;23;20012;-73
2022/03/22 02:33:35;;;;;;;57.43;36.73;;;5.60;99.90;;;;;;6242592;23;20048;-72
2022/03/22 02:36:01;;;;;;;59.47;36.93;;;5.60;99.90;;;;;;6242786;23;20056;-72
2022/03/22 02:38:33;;;;;;;57.33;36.05;;;5.60;99.90;;;;;;6243573;23;20003;-72
2022/03/22 02:40:59;;;;;;;58.60;36.78;;;5.50;99.90;;;;;;6242600;23;20032;-72
2022/03/22 02:43:28;;;;;;;61.38;37.42;;;5.50;99.90;;;;;;6242837;23;20004;-72
2022/03/22 02:45:54;;;;;;;57.85;37.05;;;5.50;99.90;;;;;;6242413;23;20001;-72
2022/03/22 02:51:09;;;;;;;59.60;37.28;;;5.50;99.90;;;;;;6241562;23;20039;-72
2022/03/22 02:53:35;;;;;;;58.75;36.80;;;5.60;99.90;;;;;;6217163;23;20016;-73
2022/03/22 02:56:01;;;;;;;57.85;36.83;;;5.50;99.90;;;;;;6242217;23;20012;-71
2022/03/22 02:58:28;;;;;;;57.25;36.85;;;5.50;99.90;;;;;;6217584;23;20016;-71
2022/03/22 03:39:45;;;;;;;55.00;36.80;;;5.50;99.90;;;;;;6242909;23;20072;-72
2022/03/22 03:42:12;;;;;;;59.15;36.67;;;5.40;99.90;;;;;;6216919;23;20018;-72
2022/03/22 03:47:25;;;;;;;59.95;36.58;;;5.50;99.90;;;;;;6181406;23;20021;-72
2022/03/22 03:49:58;;;;;;;56.67;36.90;;;5.40;99.90;;;;;;6156692;23;20056;-71
2022/03/22 03:55:01;;;;;;;60.50;36.83;;;5.40;99.90;;;;;;6238520;23;20012;-72
2022/03/22 03:57:30;;;;;;;61.70;38.90;;;5.40;99.90;;;;;;6217197;23;20015;-71
2022/03/22 04:00:05;;;;;;;57.78;37.50;;;5.40;99.90;;;;;;6218491;23;20009;-72
2022/03/22 04:02:33;;;;;;;55.10;35.88;;;5.40;99.90;;;;;;6217165;23;20004;-71
2022/03/22 04:04:59;;;;;;;54.10;35.22;;;5.40;99.90;;;;;;6217433;23;20016;-71
2022/03/22 04:07:27;;;;;;;57.13;36.88;;;5.40;99.90;;;;;;6217567;23;20064;-72
2022/03/22 04:10:00;;;;;;;58.85;36.25;;;5.30;99.90;;;;;;6217825;23;19996;-72
2022/03/22 04:12:29;;;;;;;59.67;37.08;;;5.30;99.90;;;;;;6189837;23;20023;-71
2022/03/22 04:14:55;;;;;;;58.97;38.83;;;5.30;99.90;;;;;;6217650;23;20047;-71
2022/03/22 04:17:24;;;;;;;60.38;36.38;;;5.30;99.90;;;;;;6193006;23;19997;-72
2022/03/22 04:19:53;;;;;;;55.85;37.50;;;5.30;99.90;;;;;;6193042;23;20068;-71
2022/03/22 04:22:19;;;;;;;60.60;37.95;;;5.30;99.90;;;;;;6217017;23;19996;-71
2022/03/22 04:24:46;;;;;;;63.28;38.88;;;5.20;99.90;;;;;;6217435;23;20044;-73
2022/03/22 04:32:46;;;;;;;63.03;39.58;;;5.20;99.90;;;;;;6242354;23;20023;-70
2022/03/22 04:35:17;;;;;;;59.22;38.20;;;5.20;99.90;;;;;;6216886;23;20009;-72
2022/03/22 04:37:49;;;;;;;62.40;37.78;;;5.20;99.90;;;;;;6216860;23;20036;-71
2022/03/22 04:40:16;;;;;;;59.30;37.55;;;5.20;99.90;;;;;;6216811;23;20038;-71
2022/03/22 04:42:43;;;;;;;54.60;36.58;;;5.20;99.90;;;;;;6191736;23;20001;-72
2022/03/22 04:45:10;;;;;;;61.08;37.97;;;5.20;99.90;;;;;;6217235;23;20042;-72
2022/03/22 04:47:36;;;;;;;56.42;37.97;;;5.20;99.90;;;;;;6192082;23;20075;-71
2022/03/22 04:50:07;;;;;;;61.30;37.63;;;5.20;99.90;;;;;;6192938;23;20008;-72
2022/03/22 04:58:10;;;;;;;61.38;37.53;;;5.20;99.90;;;;;;6244452;23;20017;-72
2022/03/22 05:00:41;;;;;;;61.40;39.17;;;5.10;99.90;;;;;;6192414;23;20060;-71
2022/03/22 05:03:08;;;;;;;58.28;37.85;;;5.10;99.90;;;;;;6218493;23;20023;-71
2022/03/22 05:08:18;;;;;;;59.15;38.30;;;5.10;99.90;;;;;;6218464;23;20024;-72
2022/03/22 05:10:44;;;;;;;60.55;37.08;;;5.10;99.90;;;;;;6193928;23;20016;-72
2022/03/22 05:13:12;;;;;;;60.92;38.42;;;5.10;99.90;;;;;;6193811;23;20036;-71
2022/03/22 05:15:38;;;;;;;60.75;38.58;;;5.10;99.90;;;;;;6193500;23;20009;-71
2022/03/22 05:18:04;;;;;;;56.80;37.13;;;5.00;99.90;;;;;;6169020;23;20012;-72
2022/03/22 05:20:30;;;;;;;61.25;37.90;;;5.10;99.90;;;;;;6218065;23;20003;-70
2022/03/22 05:22:58;;;;;;;56.58;36.00;;;5.00;99.90;;;;;;6193772;23;20013;-71
2022/03/22 05:25:24;;;;;;;55.63;35.92;;;5.00;99.90;;;;;;6169018;23;20016;-71
2022/03/22 05:27:51;;;;;;;62.38;37.90;;;5.00;99.90;;;;;;6218514;23;20043;-71
2022/03/22 05:30:17;;;;;;;60.38;37.97;;;5.00;99.90;;;;;;6218035;23;20007;-71
2022/03/22 05:32:44;;;;;;;54.28;35.85;;;5.00;99.90;;;;;;6193358;23;20044;-73
2022/03/22 05:35:10;;;;;;;63.10;37.45;;;5.00;99.90;;;;;;6218621;23;19996;-72
2022/03/22 05:37:39;;;;;;;61.35;38.00;;;5.00;99.90;;;;;;6193198;23;20132;-72
2022/03/22 05:40:23;;;;;;;62.40;40.35;;;5.00;99.90;;;;;;6193499;23;20015;-73
2022/03/22 05:42:51;;;;;;;60.42;38.15;;;4.90;99.90;;;;;;6217854;23;20012;-72
2022/03/22 05:45:19;;;;;;;59.95;37.58;;;4.90;99.90;;;;;;6218706;23;20023;-71
2022/03/22 05:47:45;;;;;;;57.15;36.47;;;4.90;99.90;;;;;;6243492;23;20057;-72
2022/03/22 05:50:11;;;;;;;59.97;38.92;;;4.90;99.90;;;;;;6193045;23;20003;-71
2022/03/22 05:52:45;;;;;;;59.45;36.78;;;4.90;99.90;;;;;;6218065;23;20012;-71
2022/03/22 05:55:12;;;;;;;59.55;36.78;;;4.90;99.90;;;;;;6217203;23;20046;-72
2022/03/22 05:57:38;;;;;;;61.50;37.25;;;4.80;99.90;;;;;;6217607;23;20018;-71
2022/03/22 06:00:06;;;;;;;59.22;37.95;;;4.80;99.90;;;;;;6216935;23;20073;-70
2022/03/22 06:02:36;;;;;;;61.88;37.55;;;4.90;99.90;;;;;;6218182;23;20009;-70
2022/03/22 06:05:03;;;;;;;;;;;4.90;99.90;;;;;;6218160;23;20011;-72
2022/03/22 06:07:29;;;;;;;63.33;38.33;;;4.90;99.90;;;;;;6217996;23;19930;-72
2022/03/22 06:09:55;;;;;;;62.55;37.92;;;4.90;99.90;;;;;;6217528;23;20008;-71
2022/03/22 06:12:21;;;;;;;60.25;37.80;;;4.90;99.90;;;;;;6192774;23;20012;-72
2022/03/22 06:14:47;;;;;;;60.15;38.25;;;5.00;99.90;;;;;;6192174;23;20009;-71
2022/03/22 06:17:15;;;;;;;63.42;37.95;;;5.10;99.90;;;;;;6193086;23;19997;-73
2022/03/22 06:19:41;;;;;;;59.45;37.13;;;5.20;99.90;;;;;;6167902;23;19997;-72
2022/03/22 06:22:07;;;;;;;65.13;36.85;;;5.30;99.90;;;;;;6192999;23;20004;-70
2022/03/22 06:24:36;;;;;;;64.82;39.60;;;5.40;99.90;;;;;;6193109;23;20028;-71
2022/03/22 06:27:03;;;;;;;62.70;38.75;;;5.40;99.90;;;;;;6217879;23;19996;-70
2022/03/22 06:29:29;;;;;;;57.15;36.60;;;5.50;99.90;;;;;;6217800;23;20024;-71
2022/03/22 06:31:56;;;;;;;61.25;36.80;;;5.60;99.90;;;;;;6168241;23;20007;-72
2022/03/22 06:34:22;;;;;;;67.90;38.05;;;5.60;99.90;;;;;;6217524;23;20011;-72
2022/03/22 06:36:48;;;;;;;59.65;36.08;;;5.70;99.90;;;;;;6192678;23;20000;-71
2022/03/22 06:39:14;;;;;;;58.45;36.03;;;5.80;99.90;;;;;;6192493;23;20038;-71
2022/03/22 06:41:40;;;;;;;58.58;35.90;;;5.90;99.90;;;;;;6217299;23;20013;-70
2022/03/22 06:44:06;;;;;;;55.85;35.53;;;5.90;99.90;;;;;;6192860;23;20004;-71
2022/03/22 06:46:32;;;;;;;59.83;36.25;;;6.00;99.90;;;;;;6192736;23;20024;-71
2022/03/22 06:48:58;;;;;;;57.65;35.13;;;6.10;99.90;;;;;;6217592;23;20035;-72
2022/03/22 06:51:24;;;;;;;58.25;35.78;;;6.20;99.90;;;;;;6191483;23;20043;-74
2022/03/22 06:53:50;;;;;;;59.38;34.78;;;6.30;99.90;;;;;;6188647;23;20035;-72
2022/03/22 06:56:16;;;;;;;55.65;34.00;;;6.30;99.90;;;;;;6192731;23;20017;-71
2022/03/22 06:58:42;;;;;;;62.00;35.30;;;6.30;99.90;;;;;;6217189;23;20047;-73
2022/03/22 07:01:08;;;;;;;61.25;35.58;;;6.40;99.90;;;;;;6243066;23;20015;-73
2022/03/22 07:03:34;;;;;;;51.58;34.38;;;6.40;99.90;;;;;;6192619;23;20020;-72
2022/03/22 07:06:03;;;;;;;58.30;35.25;;;6.50;99.90;;;;;;6192528;23;20017;-73
2022/03/22 07:08:32;;;;;;;55.60;34.27;;;6.60;99.90;;;;;;6243040;23;20012;-72
2022/03/22 07:13:49;;;;;;;51.78;34.40;;;6.80;99.90;;;;;;6217589;23;20051;-71
2022/03/22 07:16:15;;;;;;;54.95;33.75;;;6.90;99.90;;;;;;6217656;23;20044;-73
2022/03/22 07:18:42;;;;;;;53.67;33.92;;;7.00;99.90;;;;;;6192592;23;20012;-72
2022/03/22 07:21:08;;;;;;;51.63;33.25;;;7.00;99.90;;;;;;6243615;23;20008;-73
2022/03/22 07:23:38;;;;;;;58.70;35.22;;;7.10;99.90;;;;;;6192743;23;20065;-74
2022/03/22 07:26:11;;;;;;;52.20;33.20;;;7.30;99.90;;;;;;6192371;23;19996;-73
2022/03/22 07:28:37;;;;;;;53.58;32.45;;;7.40;99.90;;;;;;6168643;22;20039;-72
2022/03/22 07:31:05;;;;;;;55.90;33.30;;;7.50;99.90;;;;;;6192171;23;20015;-72
2022/03/22 07:33:31;;;;;;;56.70;33.88;;;7.60;99.90;;;;;;6216926;23;20001;-73
2022/03/22 07:36:00;;;;;;;53.97;32.40;;;7.80;99.90;;;;;;6217224;23;20008;-72
2022/03/22 07:38:30;;;;;;;55.13;32.92;;;7.90;99.90;;;;;;6216820;23;20028;-72
2022/03/22 07:40:59;;;;;;;50.10;32.25;;;8.10;99.90;;;;;;6217594;23;20000;-73
2022/03/22 07:43:28;;;;;;;49.85;31.40;;;8.20;99.90;;;;;;6216394;23;20012;-73
2022/03/22 07:45:55;;;;;;;52.60;32.88;;;8.40;99.90;;;;;;6191919;23;20056;-73
2022/03/22 07:48:21;;;;;;;50.70;32.70;;;8.50;99.90;;;;;;6217058;23;20016;-73
2022/03/22 07:53:32;;;;;;;51.47;31.55;;;8.90;99.90;;;;;;6216329;23;20009;-73
2022/03/22 07:55:58;;;;;;;48.40;30.17;;;9.10;99.90;;;;;;6216635;23;20020;-73
2022/03/22 07:58:37;;;;;;;52.97;30.98;;;9.30;99.90;;;;;;6217292;23;20047;-74
2022/03/22 08:01:14;;;;;;;47.72;30.48;;;9.40;99.90;;;;;;6127994;23;20005;-73
2022/03/22 08:03:43;;;;;;;46.20;29.45;;;9.60;99.90;;;;;;6128529;23;20006;-74
2022/03/22 08:06:18;;;;;;;51.05;31.45;;;9.80;99.90;;;;;;6152294;23;20002;-73
2022/03/22 08:08:45;;;;;;;46.78;29.00;;;10.00;99.90;;;;;;6151645;23;20021;-73
2022/03/22 08:11:11;;;;;;;50.13;30.38;;;10.20;99.90;;;;;;6103620;23;20022;-74
2022/03/22 08:13:38;;;;;;;49.65;30.50;;;10.40;99.90;;;;;;6103377;23;20025;-74
2022/03/22 08:16:07;;;;;;;45.03;27.95;;;10.60;99.90;;;;;;6127724;23;20010;-73
2022/03/22 08:18:33;;;;;;;50.17;29.13;;;10.80;99.90;;;;;;6103324;23;20033;-73
2022/03/22 08:20:59;;;;;;;44.67;28.30;;;11.00;99.90;;;;;;6127975;23;20042;-74
2022/03/22 08:23:25;;;;;;;45.03;27.80;;;11.20;99.90;;;;;;6129379;23;20018;-73
2022/03/22 08:25:54;;;;;;;46.88;27.30;;;11.30;99.90;;;;;;6129409;23;20088;-73
2022/03/22 08:28:23;;;;;;;43.75;26.17;;;11.50;99.90;;;;;;6129761;23;20061;-73
2022/03/22 10:57:37;;;;;;;35.70;23.95;;;18.10;64.40;;;;;;6199371;22;20161;-70
2022/03/22 11:00:05;;;;;;;36.30;24.73;;;18.10;66.30;;;;;;6244044;22;20017;-70
2022/03/22 11:02:37;;;;;;;37.10;23.58;;;18.10;66.40;;;;;;6243760;22;20020;-70
2022/03/22 11:05:04;;;;;;;35.55;23.95;;;18.30;65.60;;;;;;6244670;23;20020;-69
2022/03/22 21:29:38;;;;;;;38.25;24.52;;;9.50;99.90;;;;;;6228631;22;20009;-73
2022/03/22 21:32:06;;;;;;;40.47;24.23;;;9.50;99.90;;;;;;6218956;23;20024;-74
2022/03/22 21:34:33;;;;;;;43.92;24.33;;;9.50;99.90;;;;;;6134343;23;20017;-74
2022/03/22 21:36:59;;;;;;;38.45;24.90;;;9.40;99.90;;;;;;6134118;23;20023;-73
2022/03/22 21:39:30;;;;;;;40.75;25.70;;;9.30;99.90;;;;;;6134493;23;20053;-73
2022/03/22 21:41:59;;;;;;;47.40;26.92;;;9.30;99.90;;;;;;6133869;23;20009;-73
2022/03/22 21:44:28;;;;;;;39.85;24.33;;;9.20;99.90;;;;;;6182747;23;20025;-74
2022/03/22 21:47:02;;;;;;;45.90;25.88;;;9.20;99.90;;;;;;6183054;23;20017;-74
2022/03/22 21:49:33;;;;;;;46.88;26.33;;;9.20;99.90;;;;;;6158207;23;20045;-74
2022/03/22 21:52:02;;;;;;;40.97;27.25;;;9.20;99.90;;;;;;6133340;23;20037;-74
2022/03/22 21:54:33;;;;;;;42.33;26.65;;;9.10;99.90;;;;;;6158790;23;20041;-73
2022/03/22 21:56:59;;;;;;;39.70;25.98;;;9.10;99.90;;;;;;6158415;23;20018;-74
2022/03/22 21:59:25;;;;;;;46.63;26.63;;;9.10;99.90;;;;;;6133513;23;20069;-76
2022/03/22 22:01:52;;;;;;;43.95;26.15;;;9.00;99.90;;;;;;6158110;23;20001;-74
2022/03/22 22:04:18;;;;;;;47.25;27.25;;;9.00;99.90;;;;;;6160595;23;20005;-74
2022/03/22 22:06:48;;;;;;;42.90;27.17;;;8.90;99.90;;;;;;6193692;23;20038;-74
